Main page
METAR-TAF:

METAR-TAF

Airports :

Amman Civil Airport

Amman, Jordan

latitude: 31-59N, longitude: 035-59E, elevation: 767 m

Current weather observation

The report was made 28 minutes ago, at 10:00 UTC
Wind 12 kt from the North/Northwest
Temperature 29°C
Humidity 33%
Pressure 1010 hPa
Visibility: 5000 m
haze

METAR: OJAM 151000Z 33012KT 5000 HZ NSC 29/11 Q1010 NOSIG

Time: 13:28 (10:28 UTC)

Forecast

The report was made 5 hours and 35 minutes ago, at 04:53 UTC
Forecast valid from 15 at 06 UTC to 16 at 12 UTC
Wind 8 kt from the West
Visibility: 6000 m
Few clouds at a height of 3000 ft
Temporary
from 15 at 09 UTC to 15 at 15 UTC
Wind 12 kt from the Northwest
Visibility: 4000 m
haze

TAF: OJAM 150453Z 1506/1612 27008KT 6000 FEW030 TEMPO 1509/1515 31012KT 4000 HZ

Weather observations and forecasts of more than 4000 airports (METAR and TAF reports).

The available stations are represented by yellow and red dots on the map.

Hover mouse over dot to see the name of the station.

Then click to see weather observations and forecasts.

To change the map : click on the green buttons with a black cross to zoom in, on the green button with a dash to zoom out, or on the green arrows for adjacent maps.


METAR-TAF: